Motte Rimrock Reserve, California Weather observations

Data are for 10 minute period ending at time listed.
 Day   Time   Solar   Ave.   Ave.  Ave.  Vector  Max.   Baro.   Total    
  of    of     Rad.   Air    Rel.  Wind   Wind   Wind  Press.  Precip.   
Year   Day            Temp.  Hum.  Speed  Dir.   Gust                    
2014   (PST)  Kw/m2    F      %     mph   deg.    mph    mb.     in.     
-------------------------------------------------------------------------
 208   16:30   0.43   92.5    26    5.0    47    12.3   947.6    0.00 
 208   16:40   0.40   92.0    27    8.0    62    11.8   947.6    0.00 
 208   16:50   0.40   91.2    28    7.1   110    11.2   947.4    0.00 
 208   17:00   0.42   91.3    28    3.8    47     8.9   947.3    0.00 
 208   17:10   0.43   91.9    27    5.9    24    12.0   947.1    0.00 
 208   17:20   0.36   91.6    28    3.4    26     7.8   947.0    0.00 
 208   17:30   0.25   91.8    28    2.7   333     5.1   946.8    0.00 
 208   17:40   0.21   92.2    28    6.0   296    11.0   946.8    0.00 
 208   17:50   0.17   90.9    29    7.1   311    13.4   946.6    0.00 
 208   18:00   0.10   90.5    28    8.8   323    12.8   946.6    0.00 
 208   18:10   0.07   89.3    27   11.7   302    15.5   946.6    0.00 
 208   18:20   0.04   87.7    28   14.2   298    17.7   946.5    0.00 
 208   18:30   0.04   86.7    29   14.5   306    18.3   946.6    0.00 
 208   18:40   0.02   86.1    29   14.0   301    17.2   946.7    0.00 
 208   18:50   0.01   85.4    29   12.9   299    16.0   946.7    0.00 
 208   19:00   0.01   84.9    27   13.2   296    16.4   946.8    0.00 
 208   19:10   0.01   84.6    28   11.8   297    15.0   947.0    0.00 
 208   19:20   0.00   84.2    28   11.0   297    14.5   947.1    0.00 
 208   19:30   0.00   83.9    25   12.5   299    15.2   947.2    0.00 
 208   19:40   0.00   83.8    22   13.2   298    16.0   947.3    0.00 
 208   19:50   0.00   83.6    22   11.5   300    14.5   947.5    0.00 
 208   20:00   0.00   83.5    23   11.4   308    14.5   947.6    0.00 
 208   20:10   0.00   83.3    23   10.3   315    12.9   947.7    0.00 
 208   20:20   0.00   83.0    25    9.7   308    12.2   947.9    0.00 
 208   20:30   0.00   82.8    26    9.3   302    12.0   948.0    0.00 
 208   20:40   0.00   82.5    27    8.9   298    11.8   948.2    0.00 
 208   20:50   0.00   82.1    29    8.2   301    10.2   948.5    0.00 
 208   21:00   0.00   81.8    29    8.3   307    10.7   948.5    0.00 
 208   21:10   0.00   81.6    30    6.9   297     9.3   948.6    0.00 
 208   21:20   0.00   81.6    30    5.6   295     7.5   948.7    0.00 
 208   21:30   0.00   81.6    30    4.0   289     6.1   948.8    0.00 
 208   21:40   0.00   81.6    30    1.2   116     2.9   948.9    0.00 
 208   21:50   0.00   82.0    30    1.8    53     3.2   949.0    0.00 
 208   22:00   0.00   81.2    37    2.5    84     3.7   949.1    0.00 
 208   22:10   0.00   78.9    48    5.2   137     9.3   949.2    0.00 
 208   22:20   0.00   76.9    52    7.1   156     9.8   949.3    0.00 
 208   22:30   0.00   76.4    52    5.2   151     7.2   949.3    0.00 
 208   22:40   0.00   75.8    54    5.9   134     7.7   949.5    0.00 
 208   22:50   0.00   75.0    55    6.6   112     8.2   949.7    0.00 
 208   23:00   0.00   74.9    55    4.9   111     6.9   949.8    0.00 
 208   23:10   0.00   74.6    56    3.7    90     5.0   949.9    0.00 
 208   23:20   0.00   74.4    56    3.6    70     4.8   949.9    0.00 
 208   23:30   0.00   74.4    55    3.3    91     5.2   950.0    0.00 
 208   23:40   0.00   74.6    55    1.4    88     3.1   950.0    0.00 
 208   23:50   0.00   74.6    56    0.0     0     0.0   950.0    0.00 
 209    0:00   0.00   74.9    54    1.1    81     4.1   950.1    0.00 
 209    0:10   0.00   74.5    59    1.4   226     3.7   950.1    0.00 
 209    0:20   0.00   73.8    60    2.8   163     4.7   950.0    0.00 
 209    0:30   0.00   73.1    61    3.7   176     5.6   950.0    0.00 
 209    0:40   0.00   73.1    62    1.3   187     2.4   950.1    0.00 
 209    0:50   0.00   73.1    60    1.1   306     4.4   950.1    0.00 
 209    1:00   0.00   73.9    40    5.6   332     7.3   950.1    0.00 
 209    1:10   0.00   74.2    37    4.2   326     7.2   950.2    0.00 
 209    1:20   0.00   74.0    38    5.2   329     6.3   950.2    0.00 
 209    1:30   0.00   74.2    34    6.2   349     7.7   950.1    0.00 
 209    1:40   0.00   74.2    30    5.1   352     6.9   950.1    0.00 
 209    1:50   0.00   74.1    30    2.8    40     4.7   950.1    0.00 
 209    2:00   0.00   74.0    30    3.2    60     6.2   950.3    0.00 
 209    2:10   0.00   72.8    51    5.9    80     7.8   950.5    0.00 
 209    2:20   0.00   71.5    62    5.3   107     7.2   950.6    0.00 
 209    2:30   0.00   70.8    61    4.3   124     6.1   950.6    0.00 
 209    2:40   0.00   70.5    60    1.8   159     3.9   950.6    0.00 
 209    2:50   0.00   70.6    60    0.4   165     1.1   950.5    0.00 
 209    3:00   0.00   70.6    60    1.2   161     3.1   950.6    0.00 
 209    3:10   0.00   70.1    61    3.4   175     4.2   950.6    0.00 
 209    3:20   0.00   70.0    61    3.8   191     4.4   950.7    0.00 
 209    3:30   0.00   69.9    62    2.6   246     3.8   950.7    0.00 
 209    3:40   0.00   69.9    61    1.5   283     2.9   950.7    0.00 
 209    3:50   0.00   70.0    62    0.1   281     0.8   950.7    0.00 
 209    4:00   0.00   70.2    61    0.1   281     0.8   950.7    0.00 
 209    4:10   0.00   70.3    61    0.8   281     1.5   950.7    0.00 
 209    4:20   0.00   70.4    61    1.1   307     1.7   950.8    0.00 
 209    4:30   0.00   70.2    58    2.1   346     4.1   950.8    0.00 
 209    4:40   0.00   70.0    59    1.8    25     3.3   950.8    0.00 
 209    4:50   0.00   69.9    52    3.2   336     4.9   950.8    0.00 
 209    5:00   0.00   70.0    46    4.8   348     6.1   950.9    0.00 
 209    5:10   0.00   70.4    43    3.4   357     5.1   951.0    0.00 
 209    5:20   0.00   70.5    42    4.2   335     5.5   951.0    0.00 
 209    5:30   0.02   70.5    44    2.9   332     5.2   951.0    0.00 
 209    5:40   0.03   70.6    44    1.7   272     3.3   951.1    0.00 
 209    5:50   0.06   70.5    47    3.8   309     5.5   951.1    0.00 
 209    6:00   0.06   70.8    48    4.6   312     5.9   951.1    0.00 
 209    6:10   0.08   71.1    47    4.7   316     5.8   951.2    0.00 
 209    6:20   0.07   71.5    45    5.0   325     6.5   951.4    0.00 
 209    6:30   0.09   71.8    46    4.4   312     5.8   951.4    0.00 
 209    6:40   0.12   72.5    45    3.7   331     4.8   951.4    0.00 
 209    6:50   0.14   73.5    43    2.4    29     4.2   951.6    0.00 
 209    7:00   0.23   74.8    40    2.3     9     4.1   951.6    0.00 
 209    7:10   0.26   75.8    39    4.6    24     6.8   951.5    0.00 
 209    7:20   0.17   74.8    42    5.2    35     7.0   951.5    0.00 
 209    7:30   0.23   74.9    42    3.9    47     6.0   951.5    0.00 
 209    7:40   0.39   76.4    37    4.0    48     5.8   951.4    0.00 
 209    7:50   0.26   76.4    35    4.6    60     6.9   951.4    0.00 
 209    8:00   0.23   76.9    32    3.2    97     5.8   951.5    0.00 
 209    8:10   0.26   77.0    32    2.9    96     5.4   951.6    0.00 
 209    8:20   0.29   77.8    32    2.7   134     6.4   951.6    0.00 
 209    8:30   0.49   78.6    30    3.9   146     6.5   951.5    0.00 
 209    8:40   0.47   79.8    27    1.9   197     4.8   951.5    0.00 
 209    8:50   0.28   79.5    29    4.1   122     6.9   951.5    0.00 
 209    9:00   0.30   79.5    35    3.3   118     5.7   951.6    0.00 
 209    9:10   0.43   80.2    34    3.3   132     5.9   951.6    0.00 
 209    9:20   0.35   80.3    32    3.9   172     6.3   951.6    0.00 
 209    9:30   0.38   80.7    32    4.8   174     7.5   951.6    0.00 
 209    9:40   0.49   81.3    29    4.1   195     8.8   951.6    0.00 
 209    9:50   0.77   83.6    26    2.9   186     5.6   951.5    0.00 
 209   10:00   0.81   85.8    24    3.5   202     8.2   951.5    0.00 
 209   10:10   0.73   85.4    24    3.0   194     7.1   951.4    0.00 
 209   10:20   0.69   85.6    24    5.1   203     8.3   951.3    0.00 
 209   10:30   0.58   85.5    24    4.6   242    11.3   951.3    0.00 
 209   10:40   0.55   85.8    23    9.8   312    14.3   951.2    0.00 
 209   10:50   0.77   86.0    20    6.6   296    10.9   951.2    0.00 
 209   11:00   0.75   86.9    20    8.2   315    12.3   951.2    0.00 
 209   11:10   0.74   86.0    20    7.2   315    14.3   951.2    0.00 
 209   11:20   0.67   86.5    20    8.3   309    12.1   951.2    0.00 
 209   11:30   0.49   85.5    21    8.3   313    12.9   951.1    0.00 
 209   11:40   0.89   86.3    21    9.4   316    13.6   951.0    0.00 
 209   11:50   0.83   86.4    22   10.7   307    14.9   950.8    0.00 
 209   12:00   0.80   87.0    22   10.3   306    14.6   950.8    0.00 
 209   12:10   0.66   85.4    23   11.2   310    15.3   950.7    0.00 
 209   12:20   0.74   86.6    21   10.7   311    14.7   950.6    0.00 
 209   12:30   0.80   86.9    20   11.7   306    16.0   950.5    0.00 
 209   12:40   0.92   87.2    20   10.1   318    15.4   950.5    0.00 
 209   12:50   0.92   87.8    18   10.6   305    17.3   950.4    0.00 
 209   13:00   0.92   89.3    17   10.1   301    16.1   950.3    0.00 
 209   13:10   0.79   89.4    17   11.2   301    20.0   950.2    0.00 
 209   13:20   0.51   89.0    19   12.2   310    17.8   950.2    0.00 
 209   13:30   0.45   89.2    18   11.1   316    15.6   950.1    0.00 
 209   13:40   0.44   88.9    16   12.4   300    19.0   949.9    0.00 
 209   13:50   0.82   90.4    15   12.8   308    18.7   949.7    0.00 
 209   14:00   0.50   90.6    15   13.3   299    20.7   949.6    0.00 
 209   14:10   0.55   91.0    14   14.0   303    19.0   949.5    0.00 
 209   14:20   0.45   90.5    15   14.3   307    20.0   949.4    0.00 
 209   14:30   0.65   91.2    15   14.9   299    20.7   949.3    0.00 
 209   14:40   0.82   92.0    16   14.3   300    19.6   949.3    0.00 
 209   14:50   0.78   91.8    16   14.9   306    20.3   949.3    0.00 
 209   15:00   0.68   91.3    16   15.7   303    20.8   949.2    0.00 
 209   15:10   0.58   90.9    16   13.7   304    18.7   949.1    0.00 
 209   15:20   0.66   91.3    16   14.3   311    19.3   949.1    0.00 
 209   15:30   0.62   90.8    16   15.2   316    20.9   949.0    0.00 
 209   15:40   0.58   90.6    16   14.8   306    20.1   948.9    0.00 
 209   15:50   0.55   91.0    16   15.2   320    20.2   948.8    0.00 
 209   16:00   0.51   90.6    17   14.4   310    17.8   948.7    0.00 
 209   16:10   0.48   90.5    17   15.2   310    20.5   948.5    0.00 
 209   16:20   0.45   90.1    18   15.7   305    20.3   948.4    0.00 

Return to Motte Rimrock Reserve graphs page.


Western Regional Climate Center,wrcc@dri.edu